createdAt,value
2023-06-17T00:01:31.613Z,16.73
2023-06-17T00:03:59.625Z,15.27
2023-06-17T00:06:34.760Z,15.80
2023-06-17T00:09:02.918Z,15.48
2023-06-17T00:11:30.809Z,16.67
2023-06-17T00:14:08.845Z,16.80
2023-06-17T00:16:40.358Z,15.90
2023-06-17T00:19:15.937Z,17.20
2023-06-17T00:21:43.823Z,15.90
2023-06-17T00:24:13.383Z,15.43
2023-06-17T00:26:47.742Z,15.17
2023-06-17T00:29:17.342Z,15.60
2023-06-17T00:31:45.181Z,19.10
2023-06-17T00:34:19.625Z,16.30
2023-06-17T00:36:47.702Z,14.37
2023-06-17T00:39:16.781Z,16.92
2023-06-17T00:41:51.769Z,15.77
2023-06-17T00:44:21.384Z,14.80
2023-06-17T00:46:58.656Z,16.02
2023-06-17T00:49:35.539Z,14.77
2023-06-17T00:52:31.000Z,16.52
2023-06-17T00:54:59.660Z,17.17
2023-06-17T00:57:35.728Z,17.55
2023-06-17T01:00:10.663Z,17.23
2023-06-17T01:02:47.757Z,14.80
2023-06-17T01:05:18.324Z,17.80
2023-06-17T01:08:15.758Z,15.80
2023-06-17T01:10:51.129Z,16.27
2023-06-17T01:13:26.893Z,13.73
2023-06-17T01:15:56.909Z,13.97
2023-06-17T01:18:25.855Z,12.10
2023-06-17T01:21:01.906Z,14.43
2023-06-17T01:23:34.400Z,15.37
2023-06-17T01:26:17.776Z,15.23
2023-06-17T01:28:45.736Z,15.40
2023-06-17T01:31:13.918Z,17.60
2023-06-17T01:33:51.658Z,15.27
2023-06-17T01:36:23.895Z,15.60
2023-06-17T01:39:01.820Z,16.27
2023-06-17T01:41:36.033Z,14.17
2023-06-17T01:44:18.925Z,14.83
2023-06-17T01:46:46.794Z,16.37
2023-06-17T01:49:14.826Z,19.70
2023-06-17T01:51:49.785Z,19.63
2023-06-17T01:54:17.784Z,17.53
2023-06-17T01:56:47.369Z,20.80
2023-06-17T01:59:21.766Z,18.80
2023-06-17T02:01:49.643Z,17.20
2023-06-17T02:04:17.584Z,18.50
2023-06-17T02:06:52.828Z,17.50
2023-06-17T02:09:20.825Z,17.03
2023-06-17T02:11:50.044Z,23.57
2023-06-17T02:14:24.749Z,20.03
2023-06-17T02:16:53.517Z,23.60
2023-06-17T02:19:22.553Z,17.87
2023-06-17T02:21:57.959Z,24.10
2023-06-17T02:24:26.032Z,24.93
2023-06-17T02:27:08.798Z,25.10
2023-06-17T02:29:43.391Z,23.83
2023-06-17T02:32:17.794Z,16.97
2023-06-17T02:34:49.237Z,19.27
2023-06-17T02:37:17.618Z,18.87
2023-06-17T02:39:52.029Z,19.63
2023-06-17T02:42:23.659Z,21.00
2023-06-17T02:44:58.807Z,26.23
2023-06-17T02:47:26.789Z,18.70
2023-06-17T02:49:54.732Z,20.53
2023-06-17T02:52:29.786Z,20.50
2023-06-17T02:54:57.882Z,18.67
2023-06-17T02:57:27.356Z,24.10
2023-06-17T03:00:01.768Z,18.37
2023-06-17T03:02:29.666Z,14.73
2023-06-17T03:04:57.896Z,14.70
2023-06-17T03:07:32.804Z,13.90
2023-06-17T03:10:01.506Z,11.37
2023-06-17T03:12:31.404Z,11.07
2023-06-17T03:15:06.816Z,11.03
2023-06-17T03:17:34.716Z,10.95
2023-06-17T03:20:13.837Z,10.32
2023-06-17T03:22:41.767Z,9.43
2023-06-17T03:25:10.301Z,10.88
2023-06-17T03:27:45.945Z,9.77
2023-06-17T03:30:15.080Z,10.10
2023-06-17T03:32:52.773Z,9.35
2023-06-17T03:35:20.766Z,8.77
2023-06-17T03:37:48.677Z,9.85
2023-06-17T03:40:23.119Z,8.98
2023-06-17T03:42:52.565Z,8.60
2023-06-17T03:45:20.394Z,9.05
2023-06-17T03:47:54.899Z,7.55
2023-06-17T03:50:23.262Z,7.90
2023-06-17T03:52:51.284Z,8.48
2023-06-17T03:55:25.865Z,8.52
2023-06-17T03:57:55.201Z,9.00
2023-06-17T04:00:23.408Z,9.75
2023-06-17T04:02:58.842Z,8.27
2023-06-17T04:05:33.967Z,8.40
2023-06-17T04:08:09.796Z,8.15
2023-06-17T04:10:37.575Z,8.38
2023-06-17T04:13:06.760Z,8.50
2023-06-17T04:15:40.806Z,8.65
2023-06-17T04:18:09.363Z,8.65
2023-06-17T04:20:37.475Z,8.43
2023-06-17T04:23:11.796Z,9.98
2023-06-17T04:25:40.744Z,8.52
2023-06-17T04:28:26.051Z,8.25
2023-06-17T04:31:01.779Z,8.88
2023-06-17T04:33:37.704Z,8.48
2023-06-17T04:36:09.605Z,8.07
2023-06-17T04:38:45.810Z,7.68
2023-06-17T04:41:14.005Z,7.03
2023-06-17T04:43:52.827Z,7.75
2023-06-17T04:46:21.172Z,7.53
2023-06-17T04:48:49.839Z,8.20
2023-06-17T04:51:25.980Z,7.90
2023-06-17T04:53:54.635Z,7.93
2023-06-17T04:56:22.532Z,8.15
2023-06-17T04:58:59.084Z,7.35
2023-06-17T05:01:27.146Z,7.82
2023-06-17T05:03:55.263Z,6.82
2023-06-17T05:06:29.881Z,7.88
2023-06-17T05:08:57.798Z,7.72
2023-06-17T05:11:25.945Z,8.73
2023-06-17T05:14:01.751Z,8.30
2023-06-17T05:16:29.667Z,8.75
2023-06-17T05:18:57.592Z,9.20
2023-06-17T05:21:33.029Z,11.10
2023-06-17T05:24:02.736Z,8.45
2023-06-17T05:26:44.818Z,8.75
2023-06-17T05:29:22.525Z,8.07
2023-06-17T05:31:57.321Z,10.10
2023-06-17T05:34:25.202Z,8.73
2023-06-17T05:36:53.128Z,7.53
2023-06-17T05:39:28.739Z,7.78
2023-06-17T05:41:56.606Z,6.38
2023-06-17T05:44:25.894Z,6.60
2023-06-17T05:47:00.850Z,7.50
2023-06-17T05:49:28.726Z,7.22
2023-06-17T05:51:56.647Z,7.65
2023-06-17T05:54:30.822Z,8.18
2023-06-17T05:56:59.005Z,9.52
2023-06-17T05:59:38.123Z,8.70
2023-06-17T06:02:07.265Z,8.30
2023-06-17T06:04:35.122Z,8.02
2023-06-17T06:07:09.966Z,9.05
2023-06-17T06:09:38.167Z,9.02
2023-06-17T06:12:07.237Z,9.85
2023-06-17T06:14:42.988Z,8.57
2023-06-17T06:17:10.859Z,6.30
2023-06-17T06:19:38.997Z,5.55
2023-06-17T06:22:13.971Z,5.50
2023-06-17T06:24:41.917Z,5.50
2023-06-17T06:27:22.866Z,5.72
2023-06-17T06:29:52.081Z,5.75
2023-06-17T06:32:20.013Z,5.78
2023-06-17T06:34:54.948Z,5.65
2023-06-17T06:37:31.194Z,8.02
2023-06-17T06:40:05.901Z,5.80
2023-06-17T06:42:33.788Z,4.93
2023-06-17T06:45:03.107Z,5.50
2023-06-17T06:47:37.933Z,6.30
2023-06-17T06:50:07.128Z,5.97
2023-06-17T06:52:35.000Z,6.32
2023-06-17T06:55:09.787Z,5.68
2023-06-17T06:57:37.945Z,5.70
2023-06-17T07:00:16.803Z,6.57
2023-06-17T07:02:44.907Z,5.85
2023-06-17T07:05:13.077Z,5.97
2023-06-17T07:07:49.242Z,6.03
2023-06-17T07:10:17.191Z,6.82
2023-06-17T07:12:45.484Z,6.72
2023-06-17T07:15:21.874Z,5.28
2023-06-17T07:17:49.906Z,5.82
2023-06-17T07:20:18.368Z,4.70
2023-06-17T07:22:52.918Z,5.10
2023-06-17T07:25:22.048Z,5.38
2023-06-17T07:28:10.856Z,5.25
2023-06-17T07:30:40.259Z,5.75
2023-06-17T07:33:08.816Z,5.28
2023-06-17T07:35:44.139Z,5.50
2023-06-17T07:38:12.014Z,5.05
2023-06-17T07:40:41.024Z,4.72
2023-06-17T07:43:15.878Z,5.05
2023-06-17T07:45:45.388Z,5.22
2023-06-17T07:48:13.736Z,4.55
2023-06-17T07:50:47.951Z,4.47
2023-06-17T07:53:16.459Z,4.40
2023-06-17T07:55:44.413Z,5.78
2023-06-17T07:58:19.075Z,4.82
2023-06-17T08:00:48.458Z,5.22
2023-06-17T08:03:16.642Z,5.20
2023-06-17T08:05:51.736Z,5.38
2023-06-17T08:08:19.682Z,5.72
2023-06-17T08:10:47.666Z,5.88
2023-06-17T08:13:22.846Z,6.63
2023-06-17T08:15:53.833Z,5.32
2023-06-17T08:18:21.688Z,4.53
2023-06-17T08:20:55.889Z,4.55
2023-06-17T08:23:25.946Z,6.22
2023-06-17T08:25:54.147Z,5.43
2023-06-17T08:28:28.913Z,5.38
2023-06-17T08:30:58.141Z,5.60
2023-06-17T08:33:26.317Z,4.70
2023-06-17T08:36:01.963Z,5.93
2023-06-17T08:38:29.818Z,5.30
2023-06-17T08:40:57.809Z,5.60
2023-06-17T08:43:35.774Z,6.45
2023-06-17T08:46:05.591Z,7.25
2023-06-17T08:48:34.485Z,6.07
2023-06-17T08:51:09.963Z,5.90
2023-06-17T08:53:38.278Z,6.60
2023-06-17T08:56:06.294Z,6.93
2023-06-17T08:58:44.780Z,5.55
2023-06-17T09:01:15.212Z,5.93
2023-06-17T09:03:43.504Z,6.38
2023-06-17T09:06:26.969Z,6.25
2023-06-17T09:08:56.500Z,6.85
2023-06-17T09:11:25.504Z,5.90
2023-06-17T09:14:00.927Z,5.57
2023-06-17T09:16:31.495Z,6.03
2023-06-17T09:19:07.796Z,6.18
2023-06-17T09:21:37.760Z,5.93
2023-06-17T09:24:07.248Z,5.78
2023-06-17T09:26:44.046Z,5.97
2023-06-17T09:29:18.563Z,5.72
2023-06-17T09:31:59.074Z,6.55
2023-06-17T09:34:28.114Z,6.30
2023-06-17T09:37:07.915Z,9.20
2023-06-17T09:39:35.921Z,6.60
2023-06-17T09:42:17.916Z,7.00
2023-06-17T09:44:48.618Z,7.85
2023-06-17T09:47:24.937Z,6.63
2023-06-17T09:49:54.672Z,7.00
2023-06-17T09:52:22.950Z,8.07
2023-06-17T09:54:59.921Z,7.53
2023-06-17T09:57:32.772Z,8.43
2023-06-17T10:00:08.944Z,7.28
2023-06-17T10:02:40.003Z,7.68
2023-06-17T10:05:18.861Z,7.80
2023-06-17T10:07:48.156Z,7.97
2023-06-17T10:10:16.729Z,7.20
2023-06-17T10:12:53.092Z,8.13
2023-06-17T10:15:23.637Z,7.30
2023-06-17T10:18:00.958Z,6.22
2023-06-17T10:20:33.094Z,6.38
2023-06-17T10:23:08.960Z,8.07
2023-06-17T10:25:38.432Z,7.70
2023-06-17T10:28:59.581Z,7.13
2023-06-17T10:31:29.579Z,7.13
2023-06-17T10:33:59.056Z,7.60
2023-06-17T10:36:34.783Z,7.15
2023-06-17T10:39:06.740Z,7.43
2023-06-17T10:42:05.936Z,7.65
2023-06-17T10:44:46.325Z,7.43
2023-06-17T10:47:27.724Z,7.40
2023-06-17T10:49:56.374Z,6.88
2023-06-17T10:52:24.514Z,7.28
2023-06-17T10:55:00.715Z,8.38
2023-06-17T10:57:33.924Z,8.32
2023-06-17T11:00:16.697Z,7.85
2023-06-17T11:02:44.741Z,8.05
2023-06-17T11:05:12.984Z,8.43
2023-06-17T11:07:47.691Z,8.25
2023-06-17T11:10:15.715Z,11.18
2023-06-17T11:12:48.800Z,10.35
2023-06-17T11:15:26.881Z,8.40
2023-06-17T11:18:02.071Z,9.10
2023-06-17T11:20:38.694Z,8.05
2023-06-17T11:23:06.846Z,7.25
2023-06-17T11:25:44.309Z,7.07
2023-06-17T11:28:20.712Z,7.07
2023-06-17T11:30:50.241Z,6.22
2023-06-17T11:33:29.692Z,4.13
2023-06-17T11:35:58.787Z,4.10
2023-06-17T11:38:28.774Z,4.18
2023-06-17T11:41:03.946Z,2.80
2023-06-17T11:43:31.910Z,3.10
2023-06-17T11:46:03.087Z,3.08
2023-06-17T11:48:38.825Z,3.00
2023-06-17T11:51:07.051Z,2.90
2023-06-17T11:53:37.341Z,3.00
2023-06-17T11:56:14.700Z,2.92
2023-06-17T11:58:43.983Z,3.45
2023-06-17T12:01:21.748Z,3.20
2023-06-17T12:03:49.816Z,3.38
2023-06-17T12:06:21.114Z,3.63
2023-06-17T12:09:04.033Z,3.80
2023-06-17T12:11:33.431Z,4.03
2023-06-17T12:14:01.984Z,5.90
2023-06-17T12:16:40.717Z,2.40
2023-06-17T12:19:14.985Z,2.50
2023-06-17T12:21:49.746Z,2.15
2023-06-17T12:24:24.824Z,2.65
2023-06-17T12:27:07.044Z,2.50
2023-06-17T12:29:35.055Z,2.13
2023-06-17T12:32:04.490Z,2.40
2023-06-17T12:34:38.607Z,4.13
2023-06-17T12:37:07.818Z,3.83
2023-06-17T12:39:37.914Z,3.33
2023-06-17T12:42:12.685Z,3.63
2023-06-17T12:44:40.486Z,4.00
2023-06-17T12:47:09.923Z,4.32
2023-06-17T12:49:44.663Z,3.80
2023-06-17T12:52:12.602Z,3.92
2023-06-17T12:54:40.497Z,2.88
2023-06-17T12:57:16.052Z,2.58
2023-06-17T12:59:44.009Z,2.47
2023-06-17T13:02:13.351Z,4.40
2023-06-17T13:04:48.636Z,2.72
2023-06-17T13:07:17.742Z,2.70
2023-06-17T13:09:45.733Z,2.63
2023-06-17T13:12:21.855Z,2.53
2023-06-17T13:14:50.466Z,2.85
2023-06-17T13:17:19.820Z,2.45
2023-06-17T13:19:54.801Z,2.75
2023-06-17T13:22:22.673Z,3.28
2023-06-17T13:24:52.207Z,2.90
2023-06-17T13:27:26.754Z,2.53
2023-06-17T13:30:02.394Z,3.42
2023-06-17T13:32:38.727Z,3.30
2023-06-17T13:35:07.971Z,2.65
2023-06-17T13:37:36.127Z,2.58
2023-06-17T13:40:10.930Z,4.03
2023-06-17T13:42:38.885Z,2.85
2023-06-17T13:45:08.117Z,3.15
2023-06-17T13:47:44.219Z,5.07
2023-06-17T13:50:12.232Z,3.88
2023-06-17T13:52:40.241Z,3.78
2023-06-17T13:55:15.914Z,3.92
2023-06-17T13:57:43.828Z,4.28
2023-06-17T14:00:13.218Z,3.72
2023-06-17T14:02:49.827Z,4.75
2023-06-17T14:05:17.927Z,5.32
2023-06-17T14:07:46.197Z,4.75
2023-06-17T14:10:20.973Z,3.58
2023-06-17T14:12:49.131Z,4.22
2023-06-17T14:15:17.089Z,3.65
2023-06-17T14:17:52.816Z,4.03
2023-06-17T14:20:21.695Z,3.70
2023-06-17T14:22:50.284Z,4.30
2023-06-17T14:25:24.735Z,4.10
2023-06-17T14:28:00.327Z,4.05
2023-06-17T14:30:35.742Z,4.45
2023-06-17T14:33:05.086Z,4.35
2023-06-17T14:35:33.015Z,6.00
2023-06-17T14:38:07.766Z,5.03
2023-06-17T14:40:35.646Z,4.75
2023-06-17T14:43:05.189Z,4.63
2023-06-17T14:45:39.814Z,5.13
2023-06-17T14:48:09.242Z,4.85
2023-06-17T14:50:37.688Z,6.13
2023-06-17T14:53:11.860Z,4.28
2023-06-17T14:55:40.255Z,4.30
2023-06-17T14:58:08.136Z,5.32
2023-06-17T15:00:43.148Z,4.95
2023-06-17T15:03:12.533Z,7.10
2023-06-17T15:05:40.545Z,4.72
2023-06-17T15:08:16.728Z,4.93
2023-06-17T15:10:44.791Z,4.65
2023-06-17T15:13:12.630Z,4.30
2023-06-17T15:15:51.710Z,4.82
2023-06-17T15:18:20.982Z,5.10
2023-06-17T15:20:49.163Z,5.20
2023-06-17T15:23:24.164Z,5.95
2023-06-17T15:25:52.005Z,4.65
2023-06-17T15:28:32.767Z,5.13
2023-06-17T15:31:00.705Z,4.95
2023-06-17T15:33:29.996Z,4.70
2023-06-17T15:36:04.803Z,5.30
2023-06-17T15:38:32.997Z,5.70
2023-06-17T15:41:00.848Z,4.88
2023-06-17T15:43:35.676Z,5.35
2023-06-17T15:46:03.700Z,6.00
2023-06-17T15:48:35.424Z,5.65
2023-06-17T15:51:10.794Z,6.28
2023-06-17T15:53:38.724Z,5.18
2023-06-17T15:56:07.150Z,5.32
2023-06-17T15:58:41.825Z,5.90
2023-06-17T16:01:09.649Z,6.03
2023-06-17T16:03:40.045Z,5.25
2023-06-17T16:06:14.691Z,5.90
2023-06-17T16:08:42.541Z,5.20
2023-06-17T16:11:10.354Z,5.40
2023-06-17T16:13:46.781Z,5.60
2023-06-17T16:16:14.676Z,5.63
2023-06-17T16:18:43.918Z,5.60
2023-06-17T16:21:19.082Z,7.45
2023-06-17T16:23:46.925Z,5.75
2023-06-17T16:26:14.828Z,6.78
2023-06-17T16:28:49.834Z,6.82
2023-06-17T16:31:17.930Z,6.15
2023-06-17T16:33:47.164Z,7.28
2023-06-17T16:36:21.962Z,5.55
2023-06-17T16:38:49.853Z,6.47
2023-06-17T16:41:17.758Z,5.90
2023-06-17T16:43:51.766Z,5.68
2023-06-17T16:46:19.830Z,5.78
2023-06-17T16:48:49.137Z,5.60
2023-06-17T16:51:23.965Z,5.43
2023-06-17T16:53:52.218Z,5.82
2023-06-17T16:56:20.064Z,5.07
2023-06-17T16:58:54.868Z,5.65
2023-06-17T17:01:22.900Z,6.97
2023-06-17T17:03:52.169Z,6.20
2023-06-17T17:06:27.030Z,6.03
2023-06-17T17:08:57.084Z,5.82
2023-06-17T17:11:24.993Z,5.57
2023-06-17T17:13:59.929Z,7.00
2023-06-17T17:16:36.396Z,6.15
2023-06-17T17:19:12.772Z,8.43
2023-06-17T17:21:40.656Z,5.93
2023-06-17T17:24:08.915Z,9.43
2023-06-17T17:26:43.968Z,6.35
2023-06-17T17:29:18.328Z,6.55
2023-06-17T17:31:52.812Z,6.18
2023-06-17T17:34:22.374Z,5.97
2023-06-17T17:36:50.197Z,6.60
2023-06-17T17:39:24.827Z,6.75
2023-06-17T17:41:52.842Z,6.60
2023-06-17T17:44:20.705Z,7.10
2023-06-17T17:46:55.026Z,8.85
2023-06-17T17:49:24.239Z,7.13
2023-06-17T17:51:52.118Z,9.70
2023-06-17T17:54:26.742Z,7.38
2023-06-17T17:56:54.607Z,7.60
2023-06-17T17:59:22.525Z,7.20
2023-06-17T18:01:56.710Z,7.97
2023-06-17T18:04:26.044Z,6.90
2023-06-17T18:06:53.999Z,8.63
2023-06-17T18:09:28.959Z,7.32
2023-06-17T18:11:56.914Z,7.20
2023-06-17T18:14:24.817Z,9.07
2023-06-17T18:16:58.748Z,6.97
2023-06-17T18:19:28.074Z,7.93
2023-06-17T18:21:56.080Z,8.50
2023-06-17T18:24:30.992Z,10.68
2023-06-17T18:27:05.849Z,7.63
2023-06-17T18:29:46.900Z,7.57
2023-06-17T18:32:14.967Z,8.80
2023-06-17T18:34:44.281Z,7.97
2023-06-17T18:37:18.886Z,7.20
2023-06-17T18:39:46.787Z,7.38
2023-06-17T18:42:14.736Z,8.18
2023-06-17T18:44:48.844Z,8.00
2023-06-17T18:47:16.713Z,7.97
2023-06-17T18:49:46.797Z,7.68
2023-06-17T18:52:22.756Z,7.57
2023-06-17T18:54:50.598Z,8.30
2023-06-17T18:57:19.173Z,7.97
2023-06-17T18:59:54.876Z,8.23
2023-06-17T19:02:23.096Z,7.20
2023-06-17T19:04:52.330Z,8.45
2023-06-17T19:07:26.850Z,8.48
2023-06-17T19:09:55.904Z,7.68
2023-06-17T19:12:24.025Z,9.02
2023-06-17T19:14:59.082Z,9.30
2023-06-17T19:17:27.538Z,9.23
2023-06-17T19:19:56.782Z,8.18
2023-06-17T19:22:31.887Z,8.82
2023-06-17T19:24:59.825Z,8.70
2023-06-17T19:27:40.819Z,9.10
2023-06-17T19:30:15.692Z,10.23
2023-06-17T19:32:49.908Z,8.85
2023-06-17T19:35:19.166Z,9.70
2023-06-17T19:37:47.094Z,9.40
2023-06-17T19:40:22.143Z,8.80
2023-06-17T19:42:50.326Z,9.68
2023-06-17T19:45:18.476Z,9.52
2023-06-17T19:47:52.756Z,8.82
2023-06-17T19:50:22.097Z,10.35
2023-06-17T19:52:50.250Z,8.77
2023-06-17T19:55:24.976Z,9.60
2023-06-17T19:57:54.717Z,10.73
2023-06-17T20:00:23.048Z,9.82
2023-06-17T20:02:58.967Z,9.98
2023-06-17T20:05:28.347Z,10.00
2023-06-17T20:07:56.158Z,8.68
2023-06-17T20:10:30.894Z,9.77
2023-06-17T20:12:59.491Z,10.43
2023-06-17T20:15:29.249Z,9.73
2023-06-17T20:18:04.270Z,9.90
2023-06-17T20:20:33.711Z,9.82
2023-06-17T20:23:01.762Z,10.05
2023-06-17T20:25:36.837Z,10.55
2023-06-17T20:28:11.807Z,9.88
2023-06-17T20:30:45.867Z,10.35
2023-06-17T20:33:13.764Z,9.77
2023-06-17T20:35:43.325Z,10.38
2023-06-17T20:38:17.765Z,9.85
2023-06-17T20:40:45.645Z,10.27
2023-06-17T20:43:13.735Z,10.23
2023-06-17T20:45:47.848Z,11.07
2023-06-17T20:48:17.772Z,12.82
2023-06-17T20:50:47.169Z,10.48
2023-06-17T20:53:21.871Z,11.27
2023-06-17T20:55:49.974Z,11.25
2023-06-17T20:58:17.927Z,11.05
2023-06-17T21:00:52.885Z,14.10
2023-06-17T21:03:20.823Z,10.23
2023-06-17T21:05:50.123Z,10.57
2023-06-17T21:08:24.892Z,10.60
2023-06-17T21:10:52.828Z,10.63
2023-06-17T21:13:20.898Z,10.68
2023-06-17T21:15:55.793Z,10.45
2023-06-17T21:18:24.798Z,9.43
2023-06-17T21:20:53.996Z,10.60
2023-06-17T21:23:29.198Z,10.57
2023-06-17T21:25:59.691Z,10.20
2023-06-17T21:28:48.879Z,10.70
2023-06-17T21:31:16.699Z,10.10
2023-06-17T21:33:44.697Z,9.75
2023-06-17T21:36:20.767Z,10.23
2023-06-17T21:38:48.683Z,9.30
2023-06-17T21:41:17.589Z,8.60
2023-06-17T21:43:51.889Z,8.27
2023-06-17T21:46:19.923Z,8.88
2023-06-17T21:48:47.896Z,7.70
2023-06-17T21:51:23.877Z,8.35
2023-06-17T21:53:54.055Z,7.85
2023-06-17T21:56:22.330Z,7.93
2023-06-17T21:58:56.890Z,7.72
2023-06-17T22:01:25.155Z,7.93
2023-06-17T22:03:53.408Z,8.90
2023-06-17T22:06:29.766Z,8.30
2023-06-17T22:08:57.645Z,8.43
2023-06-17T22:11:25.445Z,8.27
2023-06-17T22:13:59.764Z,8.55
2023-06-17T22:16:30.818Z,7.80
2023-06-17T22:18:58.691Z,8.25
2023-06-17T22:21:34.802Z,7.88
2023-06-17T22:24:02.709Z,7.53
2023-06-17T22:26:30.810Z,7.65
2023-06-17T22:29:05.993Z,8.32
2023-06-17T22:31:34.038Z,7.90
2023-06-17T22:34:01.868Z,7.50
2023-06-17T22:36:37.752Z,9.45
2023-06-17T22:39:05.724Z,8.82
2023-06-17T22:41:33.760Z,8.57
2023-06-17T22:44:08.170Z,7.93
2023-06-17T22:46:36.155Z,8.27
2023-06-17T22:49:04.202Z,7.60
2023-06-17T22:51:39.881Z,8.77
2023-06-17T22:54:07.714Z,7.30
2023-06-17T22:56:35.589Z,7.50
2023-06-17T22:59:09.889Z,7.45
2023-06-17T23:01:37.714Z,6.93
2023-06-17T23:04:18.919Z,6.78
2023-06-17T23:06:48.123Z,6.80
2023-06-17T23:09:17.139Z,8.85
2023-06-17T23:11:51.888Z,7.45
2023-06-17T23:14:19.956Z,7.95
2023-06-17T23:16:47.844Z,8.65
2023-06-17T23:19:21.776Z,7.35
2023-06-17T23:21:53.507Z,7.63
2023-06-17T23:24:21.369Z,7.47
2023-06-17T23:26:55.906Z,7.70
2023-06-17T23:29:30.529Z,7.50
2023-06-17T23:32:05.047Z,7.80
2023-06-17T23:34:32.955Z,9.68
2023-06-17T23:37:02.999Z,7.70
2023-06-17T23:39:37.985Z,10.52
2023-06-17T23:42:06.614Z,7.78
2023-06-17T23:44:34.481Z,7.88
2023-06-17T23:47:10.916Z,7.35
2023-06-17T23:49:40.337Z,6.95
2023-06-17T23:52:17.795Z,7.75
2023-06-17T23:54:45.624Z,10.02
2023-06-17T23:57:13.445Z,8.25
2023-06-17T23:59:47.808Z,7.35
